Check out our new BloomSky Weather System.

Active alerts


No alerts


Thunder radar  blitzortung!


Rain radar more information rain snow radar


Visit our other weather sites:

Template documentation
and downloads

And another site



Weather Underground History page Text

Daily Summary for February 18, 2017 Units:  Metric    English   Both
« Previous Day
Next Day »
Daily Weekly Monthly Yearly Custom
  High: Low: Average:
Temperature: -17.8 °C 13.1 °C 21.1 °C
Dew Point: -17.8 °C 12.5 °C 17.3 °C
Humidity: Humidity % 49 % 81 %
Wind Speed: 0 km/h 0 km/h 4.8 km/h
Wind Gust: 0 km/h - -
Wind:- - SSE
Pressure: 0 hPa 1007.3 hPa -
Precipitation: 0 mm    
Historical Graphs
 
 
Tabular Data for February 18, 2017
Time Temperature Dew Point Pressure Wind Wind Speed Wind Gust Humidity Rainfall Rate (Hourly)
-17.8 °C -17.8 °C 0 hPa Calm     Humidity % 0 mm
00:00 14.3 °C 13.5 °C 1009.4 hPa Calm   6.4 km/h 95 % 0 mm
00:05 14.3 °C 13.5 °C 1009.4 hPa SE 1.6 km/h 6.4 km/h 95 % 0 mm
00:10 14.3 °C 13.5 °C 1009.4 hPa SE 3.2 km/h 6.4 km/h 95 % 0 mm
00:15 14.3 °C 13.5 °C 1009.4 hPa Calm   6.4 km/h 95 % 0 mm
00:20 14.2 °C 13.4 °C 1009 hPa Calm   6.4 km/h 95 % 0 mm
00:25 14.2 °C 13.4 °C 1009 hPa Calm   6.4 km/h 95 % 0 mm
00:30 14.1 °C 13.3 °C 1009 hPa Calm   3.2 km/h 95 % 0 mm
00:35 14.1 °C 13.5 °C 1009 hPa Calm   3.2 km/h 96 % 0 mm
00:40 13.9 °C 13.3 °C 1009 hPa Calm   3.2 km/h 96 % 0 mm
00:45 13.8 °C 13.2 °C 1009 hPa Calm   1.6 km/h 96 % 0 mm
00:50 13.8 °C 13.2 °C 1009 hPa Calm   1.6 km/h 96 % 0 mm
00:56 13.8 °C 13.2 °C 1009 hPa Calm   1.6 km/h 96 % 0 mm
01:01 13.6 °C 13 °C 1009 hPa Calm   1.6 km/h 96 % 0 mm
01:06 13.6 °C 13 °C 1009 hPa Calm   1.6 km/h 96 % 0 mm
01:11 13.6 °C 13 °C 1009 hPa Calm   1.6 km/h 96 % 0 mm
01:16 13.5 °C 12.9 °C 1009 hPa Calm   1.6 km/h 96 % 0 mm
01:21 13.4 °C 12.8 °C 1009 hPa Calm   1.6 km/h 96 % 0 mm
01:26 13.3 °C 12.7 °C 1009 hPa Calm   1.6 km/h 96 % 0 mm
01:31 13.3 °C 12.7 °C 1009 hPa Calm   1.6 km/h 96 % 0 mm
01:36 13.2 °C 12.6 °C 1009 hPa Calm     96 % 0 mm
01:41 13.1 °C 12.5 °C 1009 hPa Calm     96 % 0 mm
01:46 13.1 °C 12.5 °C 1009 hPa Calm     96 % 0 mm
01:51 13.2 °C 12.7 °C 1009 hPa Calm     97 % 0 mm
01:56 13.3 °C 12.8 °C 1009 hPa Calm     97 % 0 mm
02:01 13.5 °C 13 °C 1009 hPa Calm     97 % 0 mm
02:06 13.7 °C 13.2 °C 1008.7 hPa Calm   1.6 km/h 97 % 0 mm
02:11 13.9 °C 13.4 °C 1008.7 hPa Calm   1.6 km/h 97 % 0 mm
02:16 14.1 °C 13.6 °C 1008.7 hPa Calm   1.6 km/h 97 % 0 mm
02:21 14.2 °C 13.7 °C 1008.7 hPa Calm   1.6 km/h 97 % 0 mm
02:26 14.4 °C 14.1 °C 1008.7 hPa SSE 1.6 km/h 3.2 km/h 98 % 0 mm
02:31 14.7 °C 14.4 °C 1008.7 hPa SE 1.6 km/h 4.8 km/h 98 % 0 mm
02:36 14.9 °C 14.6 °C 1008.7 hPa SE 1.6 km/h 4.8 km/h 98 % 0 mm
02:41 15.1 °C 14.8 °C 1008.7 hPa SSE 1.6 km/h 4.8 km/h 98 % 0 mm
02:46 15.2 °C 14.9 °C 1008.7 hPa SE 1.6 km/h 4.8 km/h 98 % 0 mm
02:51 15.2 °C 14.9 °C 1008.7 hPa SE 1.6 km/h 4.8 km/h 98 % 0 mm
02:56 15.2 °C 14.9 °C 1008.7 hPa SE 1.6 km/h 4.8 km/h 98 % 0 mm
03:01 15.3 °C 15 °C 1008.7 hPa SE 1.6 km/h 4.8 km/h 98 % 0 mm
03:06 15.3 °C 15 °C 1008.7 hPa ESE 1.6 km/h 4.8 km/h 98 % 0 mm
03:11 15.4 °C 15.1 °C 1008.4 hPa SE 1.6 km/h 4.8 km/h 98 % 0 mm
03:16 15.5 °C 15.2 °C 1008.4 hPa Calm   3.2 km/h 98 % 0 mm
03:21 15.6 °C 15.3 °C 1008.4 hPa SE 1.6 km/h 3.2 km/h 98 % 0 mm
03:26 15.8 °C 15.5 °C 1008.4 hPa SSE 1.6 km/h 6.4 km/h 98 % 0 mm
03:31 15.9 °C 15.6 °C 1008.4 hPa SE 1.6 km/h 6.4 km/h 98 % 0 mm
03:36 16 °C 15.7 °C 1008.4 hPa SE 4.8 km/h 6.4 km/h 98 % 0 mm
03:41 16.1 °C 15.8 °C 1008.4 hPa South 4.8 km/h 9.7 km/h 98 % 0 mm
03:46 16.3 °C 16 °C 1008.4 hPa SSE 3.2 km/h 11.3 km/h 98 % 0 mm
03:52 16.5 °C 16.2 °C 1008.4 hPa South 3.2 km/h 12.9 km/h 98 % 0 mm
03:57 16.6 °C 16.3 °C 1008.4 hPa SSE 4.8 km/h 12.9 km/h 98 % 0 mm
04:02 16.7 °C 16.4 °C 1008.4 hPa SSE 11.3 km/h 14.5 km/h 98 % 0 mm
04:07 16.8 °C 16.5 °C 1008.4 hPa SSE 4.8 km/h 16.1 km/h 98 % 0 mm
04:12 16.9 °C 16.6 °C 1008.4 hPa SE 6.4 km/h 16.1 km/h 98 % 0 mm
04:17 16.9 °C 16.6 °C 1008 hPa SSE 3.2 km/h 16.1 km/h 98 % 0 mm
04:22 16.9 °C 16.6 °C 1008.4 hPa SSE 4.8 km/h 14.5 km/h 98 % 0 mm
04:27 16.9 °C 16.6 °C 1008 hPa SE 4.8 km/h 14.5 km/h 98 % 0 mm
04:32 17 °C 16.7 °C 1008 hPa ESE 3.2 km/h 11.3 km/h 98 % 0 mm
04:37 17 °C 16.7 °C 1008.4 hPa SE 3.2 km/h 11.3 km/h 98 % 0 mm
04:42 17 °C 16.7 °C 1008.4 hPa South 1.6 km/h 11.3 km/h 98 % 0 mm
04:47 17 °C 16.7 °C 1008.4 hPa SSW 6.4 km/h 9.7 km/h 98 % 0 mm
04:52 17.1 °C 16.8 °C 1008.7 hPa SSE 3.2 km/h 9.7 km/h 98 % 0 mm
04:57 17.1 °C 16.8 °C 1008.7 hPa SSE 4.8 km/h 11.3 km/h 98 % 0 mm
05:02 17.1 °C 16.8 °C 1008.7 hPa South 8 km/h 11.3 km/h 98 % 0 mm
05:07 17.1 °C 16.8 °C 1008.7 hPa SSE 4.8 km/h 11.3 km/h 98 % 0 mm
05:12 17.2 °C 16.9 °C 1008.7 hPa South 11.3 km/h 11.3 km/h 98 % 0 mm
05:17 17.2 °C 16.9 °C 1008.7 hPa South 3.2 km/h 14.5 km/h 98 % 0 mm
05:22 17.2 °C 16.9 °C 1008.7 hPa South 6.4 km/h 14.5 km/h 98 % 0 mm
05:27 17.2 °C 16.9 °C 1008.7 hPa SSE 4.8 km/h 14.5 km/h 98 % 0 mm
05:32 17.2 °C 16.9 °C 1008.7 hPa SE 3.2 km/h 14.5 km/h 98 % 0 mm
05:37 17.2 °C 16.9 °C 1009 hPa SSE 6.4 km/h 9.7 km/h 98 % 0 mm
05:42 17.2 °C 16.9 °C 1009 hPa SSW 6.4 km/h 9.7 km/h 98 % 0 mm
05:47 17.2 °C 16.9 °C 1009 hPa SE 4.8 km/h 14.5 km/h 98 % 0 mm
05:52 17.2 °C 16.9 °C 1009 hPa SE 4.8 km/h 14.5 km/h 98 % 0 mm
05:57 17.2 °C 16.9 °C 1009 hPa SSW 3.2 km/h 14.5 km/h 98 % 0 mm
06:02 17.2 °C 16.9 °C 1009 hPa SSW 3.2 km/h 9.7 km/h 98 % 0 mm
06:07 17.2 °C 16.9 °C 1009 hPa South 4.8 km/h 9.7 km/h 98 % 0 mm
06:12 17.1 °C 16.8 °C 1009 hPa South 3.2 km/h 8 km/h 98 % 0 mm
06:17 17.1 °C 16.8 °C 1009 hPa SE 1.6 km/h 8 km/h 98 % 0 mm
06:22 17.1 °C 16.8 °C 1009 hPa SSW 3.2 km/h 8 km/h 98 % 0 mm
06:27 17.1 °C 16.8 °C 1009 hPa South 3.2 km/h 6.4 km/h 98 % 0 mm
06:32 17.1 °C 16.8 °C 1009.4 hPa South 1.6 km/h 6.4 km/h 98 % 0 mm
06:37 17.1 °C 16.8 °C 1009.4 hPa South 1.6 km/h 4.8 km/h 98 % 0 mm
06:42 17.1 °C 16.8 °C 1009.4 hPa SSE 1.6 km/h 4.8 km/h 98 % 0 mm
06:47 17.2 °C 16.9 °C 1009.4 hPa SW 3.2 km/h 4.8 km/h 98 % 0 mm
06:52 17.2 °C 16.9 °C 1009.4 hPa SW 4.8 km/h 4.8 km/h 98 % 0 mm
06:57 17.2 °C 16.9 °C 1009.7 hPa SSW 3.2 km/h 6.4 km/h 98 % 0 mm
07:02 17.2 °C 16.9 °C 1009.7 hPa South 4.8 km/h 6.4 km/h 98 % 0 mm
07:07 17.3 °C 16.8 °C 1009.7 hPa Calm   8 km/h 97 % 0 mm
07:12 17.3 °C 16.8 °C 1010 hPa Calm   8 km/h 97 % 0 mm
07:22 17.3 °C 16.8 °C 1009.7 hPa SE 1.6 km/h 1.6 km/h 97 % 0 mm
07:27 17.4 °C 16.9 °C 1009.7 hPa ESE 1.6 km/h 1.6 km/h 97 % 0 mm
07:32 17.4 °C 16.9 °C 1009.7 hPa Calm   3.2 km/h 97 % 0 mm
07:37 17.4 °C 16.9 °C 1009.7 hPa Calm   3.2 km/h 97 % 0 mm
07:42 17.5 °C 17 °C 1009.7 hPa Calm   3.2 km/h 97 % 0 mm
07:47 17.5 °C 17 °C 1009.7 hPa Calm   3.2 km/h 97 % 0 mm
07:52 17.6 °C 17.1 °C 1009.7 hPa SE 1.6 km/h 3.2 km/h 97 % 0 mm
07:57 17.6 °C 17.1 °C 1010 hPa Calm   3.2 km/h 97 % 0 mm
08:02 17.7 °C 17.2 °C 1010 hPa Calm   1.6 km/h 97 % 0 mm
08:07 17.7 °C 17.2 °C 1010 hPa Calm   1.6 km/h 97 % 0 mm
08:12 17.8 °C 17.3 °C 1010 hPa Calm   1.6 km/h 97 % 0 mm
08:17 17.9 °C 17.4 °C 1010 hPa ESE 1.6 km/h 3.2 km/h 97 % 0 mm
08:22 18.1 °C 17.6 °C 1010 hPa SE 1.6 km/h 4.8 km/h 97 % 0 mm
08:27 18.4 °C 18.1 °C 1010 hPa SE 3.2 km/h 4.8 km/h 98 % 0 mm
08:32 18.6 °C 18.1 °C 1010 hPa SSE 1.6 km/h 4.8 km/h 97 % 0 mm
08:37 18.6 °C 17.9 °C 1010 hPa East 1.6 km/h 6.4 km/h 96 % 0 mm
08:42 18.8 °C 18.1 °C 1010 hPa East 3.2 km/h 6.4 km/h 96 % 0 mm
08:47 18.8 °C 18.1 °C 1010 hPa SE 1.6 km/h 6.4 km/h 96 % 0 mm
08:53 18.8 °C 18.1 °C 1010 hPa ESE 1.6 km/h 6.4 km/h 96 % 0 mm
08:58 18.9 °C 18.2 °C 1010.4 hPa NE 3.2 km/h 6.4 km/h 96 % 0 mm
09:03 19.1 °C 18.3 °C 1010.4 hPa SSE 3.2 km/h 6.4 km/h 95 % 0 mm
09:08 19.2 °C 18.4 °C 1010.4 hPa SE 4.8 km/h 8 km/h 95 % 0 mm
09:13 19.3 °C 18.3 °C 1010.4 hPa SSE 8 km/h 11.3 km/h 94 % 0 mm
09:18 19.6 °C 18.6 °C 1010.4 hPa South 9.7 km/h 11.3 km/h 94 % 0 mm
09:23 19.8 °C 18.6 °C 1010.4 hPa SE 8 km/h 14.5 km/h 93 % 0 mm
09:28 19.9 °C 18.7 °C 1010.4 hPa South 1.6 km/h 14.5 km/h 93 % 0 mm
09:33 20.1 °C 18.8 °C 1010.4 hPa SSW 8 km/h 14.5 km/h 92 % 0 mm
09:38 20.3 °C 18.8 °C 1010.7 hPa SSE 3.2 km/h 12.9 km/h 91 % 0 mm
09:43 20.6 °C 19.3 °C 1010.7 hPa SSW 3.2 km/h 12.9 km/h 92 % 0 mm
09:48 20.8 °C 19.1 °C 1010.7 hPa SSW 6.4 km/h 12.9 km/h 90 % 0 mm
09:53 20.8 °C 18.9 °C 1010.7 hPa South 4.8 km/h 14.5 km/h 89 % 0 mm
09:58 20.9 °C 19 °C 1010.7 hPa SSW 11.3 km/h 14.5 km/h 89 % 0 mm
10:03 21.1 °C 19.2 °C 1010.7 hPa South 8 km/h 14.5 km/h 89 % 0 mm
10:08 21.3 °C 19.2 °C 1010.7 hPa SE 8 km/h 14.5 km/h 88 % 0 mm
10:13 21.3 °C 19.2 °C 1010.7 hPa SSE 6.4 km/h 14.5 km/h 88 % 0 mm
10:18 21.3 °C 19.2 °C 1010.7 hPa SE 6.4 km/h 14.5 km/h 88 % 0 mm
10:23 21.6 °C 19.5 °C 1010.7 hPa SW 9.7 km/h 14.5 km/h 88 % 0 mm
10:28 21.7 °C 19.4 °C 1010.7 hPa South 8 km/h 14.5 km/h 87 % 0 mm
10:33 21.8 °C 19.4 °C 1010.7 hPa South 9.7 km/h 12.9 km/h 86 % 0 mm
10:38 21.9 °C 19.5 °C 1010.7 hPa SSE 9.7 km/h 17.7 km/h 86 % 0 mm
10:43 22.4 °C 19.9 °C 1010.7 hPa South 3.2 km/h 17.7 km/h 86 % 0 mm
10:48 22.7 °C 20 °C 1010.7 hPa SSW 11.3 km/h 17.7 km/h 85 % 0 mm
10:53 22.9 °C 19.9 °C 1010.7 hPa South 9.7 km/h 14.5 km/h 83 % 0 mm
10:55 23.1 °C 20.1 °C 1010.7 hPa South 4.8 km/h 12.9 km/h 83 % 0 mm
10:56 23.1 °C 20.1 °C 1010.7 hPa SE 4.8 km/h 12.9 km/h 83 % 0 mm
10:57 23.1 °C 20.1 °C 1010.7 hPa SE 3.2 km/h 12.9 km/h 83 % 0 mm
11:02 23.3 °C 20.1 °C 1010.7 hPa SSE 6.4 km/h 12.9 km/h 82 % 0 mm
11:07 23.4 °C 20.1 °C 1010.7 hPa SW 1.6 km/h 12.9 km/h 82 % 0 mm
11:12 23.9 °C 20.6 °C 1010.7 hPa South 6.4 km/h 12.9 km/h 82 % 0 mm
11:17 24.1 °C 20 °C 1010.4 hPa SE 6.4 km/h 12.9 km/h 78 % 0 mm
11:22 24.2 °C 20.1 °C 1010.4 hPa South 3.2 km/h 16.1 km/h 78 % 0 mm
11:27 24.7 °C 20.2 °C 1010.4 hPa SSW 14.5 km/h 16.1 km/h 76 % 0 mm
11:32 25.1 °C 20.8 °C 1010.4 hPa SW 6.4 km/h 16.1 km/h 77 % 0 mm
11:37 25.2 °C 20 °C 1010.4 hPa SE 9.7 km/h 16.1 km/h 73 % 0 mm
11:42 25.1 °C 19.9 °C 1010 hPa SE 9.7 km/h 16.1 km/h 73 % 0 mm
11:47 25.1 °C 20.6 °C 1010 hPa ESE 8 km/h 16.1 km/h 76 % 0 mm
11:52 25.2 °C 20 °C 1010 hPa SE 3.2 km/h 14.5 km/h 73 % 0 mm
11:57 25.2 °C 19.8 °C 1010 hPa SE 9.7 km/h 14.5 km/h 72 % 0 mm
12:02 25.2 °C 19.8 °C 1010 hPa SW 4.8 km/h 16.1 km/h 72 % 0 mm
12:07 25.6 °C 19.5 °C 1010 hPa SSE 6.4 km/h 16.1 km/h 69 % 0 mm
12:12 25.8 °C 19.4 °C 1010 hPa SE 3.2 km/h 16.1 km/h 68 % 0 mm
12:17 26.1 °C 20.2 °C 1009.7 hPa South 6.4 km/h 16.1 km/h 70 % 0 mm
12:22 26.2 °C 19.6 °C 1009.7 hPa SSW 4.8 km/h 17.7 km/h 67 % 0 mm
12:27 26.3 °C 19.4 °C 1009.7 hPa South 12.9 km/h 17.7 km/h 66 % 0 mm
12:32 26.2 °C 19.3 °C 1009.7 hPa WNW 1.6 km/h 17.7 km/h 66 % 0 mm
12:37 26.5 °C 20.1 °C 1009.4 hPa SE 4.8 km/h 17.7 km/h 68 % 0 mm
12:42 26.6 °C 20 °C 1009.4 hPa South 9.7 km/h 17.7 km/h 67 % 0 mm
12:47 26.4 °C 19 °C 1009.4 hPa SSE 8 km/h 19.3 km/h 64 % 0 mm
12:52 26.5 °C 19.4 °C 1009.4 hPa SSE 3.2 km/h 19.3 km/h 65 % 0 mm
12:57 26.7 °C 19.6 °C 1009 hPa SW 12.9 km/h 19.3 km/h 65 % 0 mm
13:02 26.7 °C 19.3 °C 1009 hPa SE 14.5 km/h 16.1 km/h 64 % 0 mm
13:07 26.7 °C 19.1 °C 1009 hPa SSE 1.6 km/h 16.1 km/h 63 % 0 mm
13:12 27 °C 19.9 °C 1008.7 hPa SW 6.4 km/h 16.1 km/h 65 % 0 mm
13:17 27.1 °C 19.2 °C 1008.7 hPa South 9.7 km/h 16.1 km/h 62 % 0 mm
13:22 27.1 °C 19.2 °C 1008.7 hPa SSW 4.8 km/h 14.5 km/h 62 % 0 mm
13:27 27.2 °C 19 °C 1008.7 hPa SE 8 km/h 14.5 km/h 61 % 0 mm
13:32 27.2 °C 18.8 °C 1008.4 hPa SW 6.4 km/h 16.1 km/h 60 % 0 mm
13:37 27.2 °C 19 °C 1008.4 hPa SE 8 km/h 16.1 km/h 61 % 0 mm
13:42 27.3 °C 18.9 °C 1008.4 hPa SSW 4.8 km/h 16.1 km/h 60 % 0 mm
13:47 27.8 °C 19.1 °C 1008.4 hPa SSW 6.4 km/h 14.5 km/h 59 % 0 mm
13:52 27.8 °C 19.3 °C 1008.4 hPa South 9.7 km/h 16.1 km/h 60 % 0 mm
13:57 27.6 °C 18.3 °C 1008.4 hPa WSW 6.4 km/h 16.1 km/h 57 % 0 mm
14:02 27.8 °C 18.5 °C 1008 hPa SSW 3.2 km/h 16.1 km/h 57 % 0 mm
14:07 27.8 °C 18.2 °C 1008 hPa SSE 9.7 km/h 16.1 km/h 56 % 0 mm
14:12 27.7 °C 18.1 °C 1008 hPa SE 11.3 km/h 16.1 km/h 56 % 0 mm
14:17 27.7 °C 18.1 °C 1008 hPa SSE 8 km/h 16.1 km/h 56 % 0 mm
14:22 27.7 °C 18.7 °C 1008 hPa SSE 6.4 km/h 16.1 km/h 58 % 0 mm
14:27 27.9 °C 19.4 °C 1008 hPa SSE 8 km/h 16.1 km/h 60 % 0 mm
14:32 27.9 °C 18 °C 1008 hPa SSE 11.3 km/h 16.1 km/h 55 % 0 mm
14:38 27.9 °C 18.3 °C 1007.7 hPa WSW 8 km/h 17.7 km/h 56 % 0 mm
14:43 28.1 °C 18.8 °C 1007.7 hPa SSW 6.4 km/h 17.7 km/h 57 % 0 mm
14:48 28.1 °C 18.2 °C 1007.7 hPa South 8 km/h 17.7 km/h 55 % 0 mm
14:53 28.1 °C 18.8 °C 1008 hPa ESE 14.5 km/h 17.7 km/h 57 % 0 mm
14:58 28.2 °C 18.9 °C 1007.7 hPa SSE 4.8 km/h 19.3 km/h 57 % 0 mm
15:03 28.2 °C 18.3 °C 1007.7 hPa SW 14.5 km/h 19.3 km/h 55 % 0 mm
15:13 28.1 °C 18.2 °C 1007.7 hPa South 4.8 km/h 20.9 km/h 55 % 0 mm
15:18 28.1 °C 18.2 °C 1007.7 hPa South 16.1 km/h 20.9 km/h 55 % 0 mm
15:23 28 °C 18.1 °C 1007.7 hPa SSW 14.5 km/h 20.9 km/h 55 % 0 mm
15:28 28 °C 18.7 °C 1007.7 hPa SSE 8 km/h 19.3 km/h 57 % 0 mm
15:33 28.1 °C 18.8 °C 1007.7 hPa SSE 11.3 km/h 19.3 km/h 57 % 0 mm
15:38 28.2 °C 18.3 °C 1007.7 hPa SSW 11.3 km/h 17.7 km/h 55 % 0 mm
15:43 28 °C 18.1 °C 1007.7 hPa SSE 11.3 km/h 19.3 km/h 55 % 0 mm
15:48 27.9 °C 18 °C 1007.7 hPa SSE 4.8 km/h 22.5 km/h 55 % 0 mm
15:53 27.9 °C 17.7 °C 1007.7 hPa SSW 8 km/h 22.5 km/h 54 % 0 mm
15:58 27.9 °C 18 °C 1007.7 hPa South 8 km/h 25.7 km/h 55 % 0 mm
16:03 27.9 °C 17.7 °C 1007.3 hPa South 8 km/h 25.7 km/h 54 % 0 mm
16:08 27.9 °C 17.7 °C 1007.3 hPa SSE 8 km/h 25.7 km/h 54 % 0 mm
16:13 27.9 °C 17.7 °C 1007.7 hPa South 6.4 km/h 22.5 km/h 54 % 0 mm
16:18 28.1 °C 17.9 °C 1007.3 hPa SSW 3.2 km/h 20.9 km/h 54 % 0 mm
16:23 28 °C 18.1 °C 1007.3 hPa South 6.4 km/h 17.7 km/h 55 % 0 mm
16:29 27.9 °C 17.7 °C 1007.3 hPa South 8 km/h 16.1 km/h 54 % 0 mm
16:34 27.9 °C 17.7 °C 1007.3 hPa South 4.8 km/h 16.1 km/h 54 % 0 mm
16:39 27.8 °C 17 °C 1007.3 hPa South 11.3 km/h 16.1 km/h 52 % 0 mm
16:44 27.9 °C 16.8 °C 1007.3 hPa SSE 4.8 km/h 19.3 km/h 51 % 0 mm
16:49 27.9 °C 16.5 °C 1007.7 hPa SSW 9.7 km/h 19.3 km/h 50 % 0 mm
16:54 27.8 °C 17 °C 1007.7 hPa SSW 3.2 km/h 19.3 km/h 52 % 0 mm
16:59 27.9 °C 16.8 °C 1007.7 hPa SSW 6.4 km/h 16.1 km/h 51 % 0 mm
17:04 27.8 °C 16.7 °C 1007.7 hPa South 8 km/h 16.1 km/h 51 % 0 mm
17:09 27.7 °C 17.2 °C 1007.7 hPa SE 9.7 km/h 14.5 km/h 53 % 0 mm
17:14 27.7 °C 17.5 °C 1007.7 hPa South 3.2 km/h 14.5 km/h 54 % 0 mm
17:19 27.6 °C 17.2 °C 1007.7 hPa SE 6.4 km/h 14.5 km/h 53 % 0 mm
17:24 27.3 °C 16.6 °C 1007.7 hPa SSW 8 km/h 14.5 km/h 52 % 0 mm
17:29 27.2 °C 16.2 °C 1007.7 hPa SSW 3.2 km/h 14.5 km/h 51 % 0 mm
17:34 27.2 °C 15.6 °C 1007.7 hPa SSW 8 km/h 14.5 km/h 49 % 0 mm
17:39 27.1 °C 15.8 °C 1008 hPa SSE 3.2 km/h 14.5 km/h 50 % 0 mm
17:44 26.9 °C 15.6 °C 1008 hPa SSW 8 km/h 11.3 km/h 50 % 0 mm
17:49 26.8 °C 15.8 °C 1008 hPa South 3.2 km/h 11.3 km/h 51 % 0 mm
17:54 26.6 °C 15.9 °C 1008 hPa South 1.6 km/h 11.3 km/h 52 % 0 mm
17:59 26.4 °C 15.8 °C 1008 hPa SSE 1.6 km/h 9.7 km/h 52 % 0 mm
18:04 26.2 °C 15.9 °C 1008 hPa South 1.6 km/h 8 km/h 53 % 0 mm
18:09 26.1 °C 16.1 °C 1008 hPa Calm   4.8 km/h 54 % 0 mm
18:14 25.8 °C 16.1 °C 1008 hPa SE 4.8 km/h 4.8 km/h 55 % 0 mm
18:19 25.7 °C 16.3 °C 1008 hPa SSW 1.6 km/h 4.8 km/h 56 % 0 mm
18:25 25.5 °C 16.4 °C 1008 hPa SE 1.6 km/h 4.8 km/h 57 % 0 mm
18:30 25.3 °C 16.2 °C 1008 hPa SE 1.6 km/h 4.8 km/h 57 % 0 mm
18:35 25.3 °C 16.2 °C 1008 hPa SE 3.2 km/h 4.8 km/h 57 % 0 mm
18:40 25.3 °C 15.9 °C 1008 hPa ESE 3.2 km/h 4.8 km/h 56 % 0 mm
18:45 25.3 °C 15.9 °C 1008 hPa Calm   4.8 km/h 56 % 0 mm
18:50 25.1 °C 15.4 °C 1008 hPa ESE 1.6 km/h 4.8 km/h 55 % 0 mm
18:55 25 °C 15.3 °C 1008 hPa ESE 3.2 km/h 4.8 km/h 55 % 0 mm
19:00 24.8 °C 15.1 °C 1008 hPa ESE 1.6 km/h 4.8 km/h 55 % 0 mm
19:05 24.5 °C 15.1 °C 1008 hPa SE 4.8 km/h 6.4 km/h 56 % 0 mm
19:10 24.6 °C 15.2 °C 1008.4 hPa SE 6.4 km/h 8 km/h 56 % 0 mm
19:15 24.6 °C 15.5 °C 1008.4 hPa ESE 4.8 km/h 9.7 km/h 57 % 0 mm
19:20 24.6 °C 16.1 °C 1008.4 hPa SE 4.8 km/h 12.9 km/h 59 % 0 mm
19:25 24.6 °C 16.3 °C 1008.7 hPa SSE 6.4 km/h 12.9 km/h 60 % 0 mm
19:30 24.4 °C 16.4 °C 1008.7 hPa ESE 3.2 km/h 12.9 km/h 61 % 0 mm
19:35 24.1 °C 16.4 °C 1008.7 hPa SE 3.2 km/h 8 km/h 62 % 0 mm
19:40 23.8 °C 16.8 °C 1009 hPa ESE 4.8 km/h 8 km/h 65 % 0 mm
19:45 23.8 °C 18.4 °C 1009 hPa SE 11.3 km/h 22.5 km/h 72 % 0 mm
19:50 23.6 °C 19.5 °C 1009 hPa SE 9.7 km/h 22.5 km/h 78 % 0 mm
19:55 23.2 °C 19.8 °C 1009.4 hPa South 11.3 km/h 22.5 km/h 81 % 0 mm
20:00 22.7 °C 19.9 °C 1009.4 hPa SE 11.3 km/h 22.5 km/h 84 % 0 mm
20:05 22.3 °C 19.8 °C 1009.4 hPa ESE 9.7 km/h 19.3 km/h 86 % 0 mm
20:10 22 °C 19.7 °C 1009.4 hPa SSE 11.3 km/h 22.5 km/h 87 % 0 mm
20:15 21.7 °C 19.6 °C 1009.4 hPa ESE 17.7 km/h 22.5 km/h 88 % 0 mm
20:21 21.6 °C 19.5 °C 1009.4 hPa SSE 4.8 km/h 22.5 km/h 88 % 0 mm
20:26 21.5 °C 19.6 °C 1009.4 hPa SSE 9.7 km/h 19.3 km/h 89 % 0 mm
20:36 21.3 °C 19.4 °C 1009.7 hPa SSW 8 km/h 16.1 km/h 89 % 0 mm
20:42 21.2 °C 19.3 °C 1009.7 hPa ESE 11.3 km/h 14.5 km/h 89 % 0 mm
20:52 21.1 °C 19.2 °C 1009.7 hPa SE 8 km/h 19.3 km/h 89 % 0 mm
20:57 21 °C 19.1 °C 1010 hPa South 8 km/h 19.3 km/h 89 % 0 mm
21:02 20.9 °C 19 °C 1010 hPa SE 11.3 km/h 17.7 km/h 89 % 0 mm
21:07 20.9 °C 19 °C 1010 hPa SE 4.8 km/h 17.7 km/h 89 % 0 mm
21:12 20.9 °C 19 °C 1010 hPa SSW 4.8 km/h 17.7 km/h 89 % 0 mm
21:17 20.9 °C 19 °C 1010 hPa East 9.7 km/h 17.7 km/h 89 % 0 mm
21:22 20.9 °C 19 °C 1010.4 hPa South 4.8 km/h 12.9 km/h 89 % 0 mm
21:27 21 °C 19.1 °C 1010.4 hPa ESE 6.4 km/h 12.9 km/h 89 % 0 mm
21:32 21.1 °C 19.2 °C 1010.4 hPa ESE 11.3 km/h 16.1 km/h 89 % 0 mm
21:37 21.1 °C 19.2 °C 1010.4 hPa SE 4.8 km/h 16.1 km/h 89 % 0 mm
21:42 21.1 °C 19.2 °C 1010.4 hPa SE 4.8 km/h 16.1 km/h 89 % 0 mm
21:47 21.1 °C 19.2 °C 1010 hPa East 8 km/h 14.5 km/h 89 % 0 mm
21:52 21 °C 19.1 °C 1010 hPa SSE 3.2 km/h 14.5 km/h 89 % 0 mm
21:57 20.9 °C 19 °C 1010 hPa SE 4.8 km/h 14.5 km/h 89 % 0 mm
22:02 20.9 °C 19 °C 1010.4 hPa SE 4.8 km/h 12.9 km/h 89 % 0 mm
22:07 20.9 °C 19.2 °C 1010.4 hPa ESE 3.2 km/h 12.9 km/h 90 % 0 mm
22:12 20.9 °C 19.2 °C 1010.4 hPa ESE 6.4 km/h 12.9 km/h 90 % 0 mm
22:17 20.9 °C 19.2 °C 1010 hPa East 4.8 km/h 12.9 km/h 90 % 0 mm
22:22 20.9 °C 19.2 °C 1010 hPa ESE 3.2 km/h 11.3 km/h 90 % 0 mm
22:28 20.8 °C 19.1 °C 1010 hPa SSE 4.8 km/h 11.3 km/h 90 % 0 mm
22:33 20.8 °C 19.1 °C 1010 hPa ENE 3.2 km/h 9.7 km/h 90 % 0 mm
22:38 20.8 °C 19.1 °C 1010 hPa ESE 3.2 km/h 11.3 km/h 90 % 0 mm
22:43 20.7 °C 19 °C 1010 hPa ESE 4.8 km/h 11.3 km/h 90 % 0 mm
22:48 20.6 °C 19.1 °C 1010 hPa ESE 4.8 km/h 11.3 km/h 91 % 0 mm
22:53 20.5 °C 19.2 °C 1010.4 hPa ESE 1.6 km/h 6.4 km/h 92 % 0 mm
22:58 20.4 °C 19.1 °C 1010.4 hPa ESE 6.4 km/h 6.4 km/h 92 % 0 mm
23:03 20.4 °C 19.2 °C 1010.4 hPa ESE 8 km/h 8 km/h 93 % 0 mm
23:08 20.4 °C 19.2 °C 1010.4 hPa NNE 1.6 km/h 9.7 km/h 93 % 0 mm
23:13 20.3 °C 19.1 °C 1010.4 hPa ESE 4.8 km/h 9.7 km/h 93 % 0 mm
23:19 20.3 °C 19.3 °C 1010.4 hPa SSE 1.6 km/h 9.7 km/h 94 % 0 mm
23:24 20.3 °C 19.3 °C 1010.7 hPa ESE 1.6 km/h 8 km/h 94 % 0 mm
23:29 20.3 °C 19.3 °C 1010.7 hPa SSE 3.2 km/h 8 km/h 94 % 0 mm
23:34 20.3 °C 19.3 °C 1011.1 hPa ESE 3.2 km/h 6.4 km/h 94 % 0 mm
23:39 20.3 °C 19.3 °C 1011.1 hPa ESE 3.2 km/h 6.4 km/h 94 % 0 mm
23:44 20.3 °C 19.5 °C 1011.1 hPa ESE 4.8 km/h 8 km/h 95 % 0 mm
23:49 20.3 °C 19.5 °C 1011.1 hPa SSE 1.6 km/h 8 km/h 95 % 0 mm
23:54 20.3 °C 19.5 °C 1011.1 hPa ESE 6.4 km/h 8 km/h 95 % 0 mm
23:59 20.4 °C 19.6 °C 1011.1 hPa SE 4.8 km/h 6.4 km/h 95 % 0 mm
Spring, Texas: Villages of Bridgestone
Compliments of Weather Underground - 2.75 mb

Script developed by  Jim McMurry - jmcmurry@mwt.net Adapted for the template by  Wim van der Kuil - Leuven-Template.eu

You find our weather info also at:

UK Metoffice

WeatherCloud

Weather Underground

Mid-South Weather Network

AWEKAS

Citizen Weather Observer Program (CWOP)

HAMweather, WeatherForYou, PWS Weather

Equipment we use:

Weather-station
Davis Vantage Vue

Weather-program
Meteohub

Weather-server
Debian 7.9 x86 (Guest)

Provider
DreamHost

Davis Vantage Vue

Meteohub

Debian 7.9 x86 (Guest)

DreamHost